createdAt,value
2023-04-23T00:02:28.729Z,31.10
2023-04-23T00:05:09.087Z,30.20
2023-04-23T00:08:27.977Z,31.20
2023-04-23T00:11:06.362Z,29.10
2023-04-23T00:13:51.969Z,29.30
2023-04-23T00:16:27.330Z,26.70
2023-04-23T00:19:09.309Z,27.70
2023-04-23T00:21:49.971Z,25.20
2023-04-23T00:24:26.222Z,25.00
2023-04-23T00:27:08.735Z,24.80
2023-04-23T00:29:46.492Z,23.00
2023-04-23T00:32:18.705Z,23.00
2023-04-23T00:34:58.426Z,22.60
2023-04-23T00:37:33.318Z,22.10
2023-04-23T00:40:23.710Z,22.00
2023-04-23T00:43:00.199Z,21.70
2023-04-23T00:45:30.088Z,23.70
2023-04-23T00:48:14.885Z,23.10
2023-04-23T00:53:36.267Z,22.40
2023-04-23T00:56:13.255Z,24.20
2023-04-23T00:58:43.402Z,24.10
2023-04-23T01:01:20.676Z,23.60
2023-04-23T01:03:52.903Z,22.90
2023-04-23T01:06:25.182Z,21.80
2023-04-23T01:08:59.191Z,23.90
2023-04-23T01:11:43.255Z,24.30
2023-04-23T01:14:13.681Z,23.50
2023-04-23T01:16:53.820Z,24.90
2023-04-23T01:19:33.860Z,23.80
2023-04-23T01:25:07.064Z,23.90
2023-04-23T01:27:41.397Z,24.30
2023-04-23T01:30:15.269Z,26.50
2023-04-23T01:32:51.217Z,25.90
2023-04-23T01:35:31.767Z,25.10
2023-04-23T01:38:15.138Z,24.60
2023-04-23T01:40:48.747Z,24.20
2023-04-23T01:43:39.216Z,22.70
2023-04-23T01:46:15.357Z,22.90
2023-04-23T01:48:50.091Z,20.80
2023-04-23T01:51:25.117Z,19.70
2023-04-23T01:56:30.913Z,19.10
2023-04-23T01:59:09.382Z,18.80
2023-04-23T02:01:46.861Z,19.40
2023-04-23T02:04:22.822Z,17.80
2023-04-23T02:07:11.211Z,19.40
2023-04-23T02:09:46.412Z,19.80
2023-04-23T02:12:31.802Z,17.80
2023-04-23T02:15:12.519Z,18.10
2023-04-23T02:17:52.659Z,18.10
2023-04-23T02:20:39.968Z,16.80
2023-04-23T02:23:31.364Z,18.00
2023-04-23T02:26:11.029Z,17.70
2023-04-23T02:28:59.332Z,16.90
2023-04-23T02:31:47.961Z,16.80
2023-04-23T02:34:22.893Z,17.30
2023-04-23T02:37:08.981Z,15.70
2023-04-23T02:39:43.176Z,16.60
2023-04-23T02:42:15.216Z,16.00
2023-04-23T02:44:56.480Z,15.50
2023-04-23T02:47:34.878Z,14.90
2023-04-23T02:50:10.064Z,17.80
2023-04-23T02:52:42.434Z,16.60
2023-04-23T02:55:18.722Z,16.10
2023-04-23T02:57:59.750Z,16.70
2023-04-23T03:00:36.357Z,15.00
2023-04-23T03:03:12.357Z,15.80
2023-04-23T03:05:48.273Z,15.50
2023-04-23T03:08:18.088Z,16.20
2023-04-23T03:10:55.593Z,14.80
2023-04-23T03:13:28.564Z,14.60
2023-04-23T03:16:06.777Z,14.40
2023-04-23T03:18:37.197Z,14.20
2023-04-23T03:21:10.417Z,15.70
2023-04-23T03:23:45.823Z,13.70
2023-04-23T03:26:23.088Z,15.70
2023-04-23T03:28:57.681Z,15.80
2023-04-23T03:31:32.932Z,16.60
2023-04-23T03:34:05.466Z,15.30
2023-04-23T03:36:36.532Z,16.40
2023-04-23T03:39:08.830Z,16.20
2023-04-23T03:41:57.318Z,16.90
2023-04-23T03:44:44.298Z,18.40
2023-04-23T03:47:18.724Z,18.80
2023-04-23T03:49:53.865Z,19.00
2023-04-23T03:52:33.015Z,19.50
2023-04-23T03:55:06.699Z,20.30
2023-04-23T03:57:45.061Z,31.60
2023-04-23T04:00:42.447Z,26.10
2023-04-23T04:03:12.802Z,20.10
2023-04-23T04:05:48.953Z,19.30
2023-04-23T04:08:21.250Z,20.20
2023-04-23T04:10:56.181Z,19.80
2023-04-23T04:13:28.499Z,18.40
2023-04-23T04:16:05.192Z,18.60
2023-04-23T04:18:40.230Z,16.90
2023-04-23T04:21:12.622Z,17.80
2023-04-23T04:23:49.110Z,16.90
2023-04-23T04:26:25.163Z,17.40
2023-04-23T04:29:01.192Z,16.50
2023-04-23T04:31:33.550Z,19.40
2023-04-23T04:34:09.138Z,20.80
2023-04-23T04:37:06.594Z,22.00
2023-04-23T04:39:40.039Z,20.00
2023-04-23T04:42:25.247Z,18.30
2023-04-23T04:45:20.994Z,17.70
2023-04-23T04:48:00.689Z,17.10
2023-04-23T04:50:34.368Z,16.90
2023-04-23T04:53:13.692Z,14.90
2023-04-23T04:55:53.079Z,13.20
2023-04-23T04:58:36.448Z,16.20
2023-04-23T05:01:08.424Z,16.20
2023-04-23T05:03:48.408Z,18.40
2023-04-23T05:06:34.483Z,16.10
2023-04-23T05:09:17.234Z,15.00
2023-04-23T05:12:18.258Z,14.90
2023-04-23T05:15:09.471Z,15.90
2023-04-23T05:17:51.631Z,15.30
2023-04-23T05:20:32.842Z,16.50
2023-04-23T05:23:13.633Z,16.20
2023-04-23T05:26:12.947Z,16.10
2023-04-23T05:29:01.645Z,18.30
2023-04-23T05:31:40.655Z,17.70
2023-04-23T05:34:14.366Z,19.00
2023-04-23T05:36:46.402Z,16.40
2023-04-23T05:39:22.951Z,16.60
2023-04-23T05:42:03.078Z,15.70
2023-04-23T05:44:39.695Z,15.60
2023-04-23T05:47:31.709Z,15.80
2023-04-23T05:50:08.581Z,14.70
2023-04-23T05:52:40.884Z,13.80
2023-04-23T05:55:12.283Z,14.20
2023-04-23T05:57:49.537Z,13.50
2023-04-23T06:00:30.662Z,13.70
2023-04-23T06:03:02.932Z,13.10
2023-04-23T06:05:45.363Z,14.20
2023-04-23T06:08:25.811Z,12.70
2023-04-23T06:11:04.899Z,12.00
2023-04-23T06:13:36.794Z,12.70
2023-04-23T06:16:18.962Z,12.70
2023-04-23T06:18:54.217Z,12.10
2023-04-23T06:21:36.778Z,12.30
2023-04-23T06:24:22.651Z,11.80
2023-04-23T06:26:57.865Z,11.50
2023-04-23T06:29:36.272Z,12.50
2023-04-23T06:32:09.375Z,11.10
2023-04-23T06:35:00.294Z,12.30
2023-04-23T06:37:35.057Z,10.80
2023-04-23T06:40:10.798Z,10.80
2023-04-23T06:42:44.166Z,10.80
2023-04-23T06:45:42.685Z,11.20
2023-04-23T06:48:18.827Z,12.20
2023-04-23T06:50:51.337Z,13.30
2023-04-23T06:53:41.206Z,12.10
2023-04-23T06:56:16.305Z,12.70
2023-04-23T06:58:49.895Z,11.20
2023-04-23T07:01:24.448Z,11.70
2023-04-23T07:03:56.702Z,10.90
2023-04-23T07:06:29.038Z,13.00
2023-04-23T07:09:09.445Z,10.10
2023-04-23T07:12:17.867Z,9.90
2023-04-23T07:14:49.288Z,9.80
2023-04-23T07:18:22.226Z,9.40
2023-04-23T07:22:31.901Z,10.60
2023-04-23T07:25:28.384Z,9.70
2023-04-23T07:27:58.824Z,9.60
2023-04-23T07:30:29.563Z,8.90
2023-04-23T07:33:12.499Z,10.40
2023-04-23T07:35:55.374Z,8.70
2023-04-23T07:38:31.607Z,10.60
2023-04-23T07:41:13.464Z,20.40
2023-04-23T07:43:57.021Z,8.20
2023-04-23T07:47:02.633Z,7.20
2023-04-23T07:49:38.674Z,8.50
2023-04-23T07:52:21.844Z,7.10
2023-04-23T07:54:56.477Z,11.20
2023-04-23T07:57:33.055Z,7.50
2023-04-23T08:00:24.707Z,7.90
2023-04-23T08:03:31.058Z,6.50
2023-04-23T08:06:27.785Z,7.30
2023-04-23T08:09:57.843Z,7.40
2023-04-23T08:12:49.496Z,6.10
2023-04-23T08:15:24.052Z,7.30
2023-04-23T08:17:55.750Z,6.20
2023-04-23T08:20:30.171Z,5.90
2023-04-23T08:23:00.807Z,5.90
2023-04-23T08:25:35.205Z,5.80
2023-04-23T08:28:06.496Z,5.50
2023-04-23T08:33:21.846Z,8.30
2023-04-23T08:35:52.488Z,6.00
2023-04-23T08:40:58.864Z,5.90
2023-04-23T08:44:01.686Z,6.30
2023-04-23T08:46:45.986Z,6.50
2023-04-23T08:49:19.342Z,5.50
2023-04-23T08:52:11.580Z,5.30
2023-04-23T08:54:57.281Z,5.00
2023-04-23T08:57:40.945Z,7.40
2023-04-23T09:04:51.327Z,4.20
2023-04-23T09:07:36.505Z,5.60
2023-04-23T09:10:23.766Z,8.80
2023-04-23T09:13:30.963Z,4.90
2023-04-23T09:16:07.578Z,4.80
2023-04-23T09:19:00.575Z,5.00
2023-04-23T09:21:40.520Z,9.70
2023-04-23T09:24:46.029Z,5.70
2023-04-23T09:27:53.989Z,4.50
2023-04-23T09:30:42.840Z,5.00
2023-04-23T09:38:32.646Z,4.80
2023-04-23T09:45:09.504Z,4.30
2023-04-23T09:48:17.179Z,4.40
2023-04-23T09:51:27.751Z,4.60
2023-04-23T09:54:47.198Z,4.60
2023-04-23T09:57:56.363Z,4.30
2023-04-23T10:00:26.520Z,3.80
2023-04-23T10:14:15.021Z,3.90
2023-04-23T10:17:04.293Z,3.30
2023-04-23T10:24:29.584Z,4.90
2023-04-23T10:32:36.245Z,15.60
2023-04-23T11:24:17.845Z,3.80
2023-04-23T11:26:58.872Z,3.10
2023-04-23T11:29:41.570Z,3.90
2023-04-23T11:32:45.791Z,3.50
2023-04-23T11:39:56.083Z,5.50
2023-04-23T12:25:05.348Z,3.70
2023-04-23T12:28:23.231Z,3.60
2023-04-23T12:31:16.921Z,2.90
2023-04-23T12:34:22.458Z,4.40
2023-04-23T12:37:09.465Z,4.10
2023-04-23T12:39:49.724Z,3.30
2023-04-23T12:43:08.710Z,3.70
2023-04-23T12:45:50.750Z,3.10
2023-04-23T12:48:28.792Z,3.20
2023-04-23T12:51:01.784Z,2.80
2023-04-23T12:53:39.417Z,2.80
2023-04-23T12:56:21.692Z,3.10
2023-04-23T12:59:10.123Z,3.10
2023-04-23T13:02:11.113Z,3.40
2023-04-23T13:05:05.988Z,2.90
2023-04-23T13:07:55.195Z,3.20
2023-04-23T13:10:37.353Z,3.40
2023-04-23T13:14:11.357Z,3.20
2023-04-23T13:18:12.661Z,3.00
2023-04-23T13:21:04.567Z,3.10
2023-04-23T13:23:51.681Z,3.40
2023-04-23T13:26:24.884Z,3.40
2023-04-23T13:29:27.712Z,3.30
2023-04-23T13:32:52.067Z,3.00
2023-04-23T13:58:44.715Z,2.80
2023-04-23T14:02:02.427Z,3.40
2023-04-23T14:04:47.666Z,4.50
2023-04-23T14:11:01.841Z,5.10
2023-04-23T14:14:41.186Z,2.40
2023-04-23T14:21:49.101Z,2.10
2023-04-23T14:25:49.302Z,2.80
2023-04-23T14:29:23.548Z,3.00
2023-04-23T14:32:50.733Z,4.60
2023-04-23T14:35:50.850Z,6.10
2023-04-23T14:38:46.231Z,5.30
2023-04-23T14:41:42.727Z,3.80
2023-04-23T14:44:33.950Z,5.80
2023-04-23T14:47:39.158Z,4.70
2023-04-23T14:50:14.832Z,6.40
2023-04-23T14:53:02.049Z,5.80
2023-04-23T14:55:45.838Z,5.80
2023-04-23T14:58:23.987Z,6.00
2023-04-23T15:01:33.729Z,8.90
2023-04-23T15:04:22.087Z,7.50
2023-04-23T15:07:02.399Z,7.20
2023-04-23T15:09:42.994Z,6.30
2023-04-23T15:12:44.710Z,7.20
2023-04-23T15:15:44.349Z,6.80
2023-04-23T15:18:25.517Z,5.90
2023-04-23T15:21:00.875Z,7.40
2023-04-23T15:23:43.549Z,7.40
2023-04-23T15:26:26.138Z,8.80
2023-04-23T15:29:11.594Z,7.30
2023-04-23T15:31:49.228Z,6.60
2023-04-23T15:34:23.960Z,6.10
2023-04-23T15:36:56.870Z,5.20
2023-04-23T15:39:38.742Z,5.20
2023-04-23T15:42:20.400Z,5.30
2023-04-23T15:45:00.739Z,5.10
2023-04-23T15:47:38.660Z,5.30
2023-04-23T15:50:16.601Z,5.00
2023-04-23T15:52:55.403Z,5.50
2023-04-23T15:55:38.632Z,5.10
2023-04-23T15:58:24.455Z,4.50
2023-04-23T16:01:05.151Z,3.40
2023-04-23T16:03:57.647Z,3.80
2023-04-23T16:09:57.706Z,3.20
2023-04-23T16:12:35.948Z,2.90
2023-04-23T16:15:13.928Z,2.90
2023-04-23T16:18:25.876Z,2.30
2023-04-23T16:21:21.807Z,3.10
2023-04-23T16:24:16.245Z,3.40
2023-04-23T16:27:11.526Z,10.10
2023-04-23T16:30:13.133Z,10.40
2023-04-23T16:32:48.181Z,11.00
2023-04-23T16:35:28.868Z,4.70
2023-04-23T16:38:12.866Z,6.20
2023-04-23T16:41:05.301Z,4.20
2023-04-23T16:43:41.570Z,4.10
2023-04-23T16:46:25.478Z,4.00
2023-04-23T16:49:05.522Z,4.40
2023-04-23T16:51:43.807Z,5.40
2023-04-23T16:54:23.800Z,3.90
2023-04-23T16:57:14.069Z,2.90
2023-04-23T17:00:23.881Z,3.50
2023-04-23T17:02:58.655Z,4.10
2023-04-23T17:05:37.053Z,14.80
2023-04-23T17:08:10.347Z,6.60
2023-04-23T17:10:57.035Z,6.10
2023-04-23T17:14:18.550Z,5.30
2023-04-23T17:17:17.327Z,4.60
2023-04-23T17:20:19.604Z,4.80
2023-04-23T17:23:13.848Z,5.70
2023-04-23T17:26:14.335Z,4.70
2023-04-23T17:29:00.182Z,4.50
2023-04-23T17:32:02.968Z,4.70
2023-04-23T17:35:12.204Z,5.50
2023-04-23T17:38:00.283Z,5.70
2023-04-23T17:40:39.586Z,6.50
2023-04-23T17:43:14.446Z,8.90
2023-04-23T17:46:01.039Z,9.60
2023-04-23T17:48:55.315Z,10.20
2023-04-23T17:51:42.897Z,13.20
2023-04-23T17:54:27.310Z,11.40
2023-04-23T17:57:11.613Z,9.60
2023-04-23T17:59:53.198Z,8.20
2023-04-23T18:02:28.997Z,8.50
2023-04-23T18:05:09.683Z,7.60
2023-04-23T18:07:45.437Z,8.20
2023-04-23T18:10:31.224Z,8.10
2023-04-23T18:13:15.408Z,9.70
2023-04-23T18:16:08.932Z,9.70
2023-04-23T18:18:50.161Z,9.00
2023-04-23T18:21:23.344Z,9.60
2023-04-23T18:23:58.457Z,9.30
2023-04-23T18:26:37.613Z,9.40
2023-04-23T18:29:11.622Z,9.00
2023-04-23T18:31:43.657Z,8.90
2023-04-23T18:34:27.828Z,9.40
2023-04-23T18:37:08.304Z,9.10
2023-04-23T18:39:41.555Z,35.80
2023-04-23T18:42:23.965Z,22.50
2023-04-23T18:48:38.722Z,10.20
2023-04-23T18:51:17.901Z,10.80
2023-04-23T18:53:52.545Z,11.00
2023-04-23T18:56:42.879Z,12.80
2023-04-23T18:59:24.392Z,11.60
2023-04-23T19:02:34.331Z,9.70
2023-04-23T19:05:17.118Z,9.20
2023-04-23T19:08:29.138Z,8.90
2023-04-23T19:11:06.943Z,8.30
2023-04-23T19:13:56.126Z,8.20
2023-04-23T19:16:43.740Z,8.80
2023-04-23T19:19:58.547Z,7.20
2023-04-23T19:22:59.449Z,7.30
2023-04-23T19:25:49.053Z,7.60
2023-04-23T19:28:35.889Z,7.30
2023-04-23T19:31:28.430Z,8.30
2023-04-23T19:34:27.913Z,9.00
2023-04-23T19:37:14.001Z,9.00
2023-04-23T19:39:57.353Z,10.00
2023-04-23T19:42:55.581Z,9.20
2023-04-23T19:45:49.213Z,10.90
2023-04-23T19:48:40.244Z,10.00
2023-04-23T19:51:51.991Z,10.70
2023-04-23T19:54:24.786Z,17.30
2023-04-23T19:56:58.274Z,23.50
2023-04-23T19:59:32.869Z,23.50
2023-04-23T20:02:02.896Z,26.00
2023-04-23T20:04:33.856Z,27.80
2023-04-23T20:07:22.371Z,25.60
2023-04-23T20:10:26.330Z,27.60
2023-04-23T20:13:31.099Z,27.40
2023-04-23T20:17:03.226Z,27.90
2023-04-23T20:19:38.483Z,29.10
2023-04-23T20:22:17.137Z,27.30
2023-04-23T20:25:01.255Z,28.50
2023-04-23T20:27:33.635Z,28.40
2023-04-23T20:33:13.050Z,33.50
2023-04-23T20:35:54.659Z,24.40
2023-04-23T20:38:33.991Z,24.40
2023-04-23T20:41:06.842Z,23.30
2023-04-23T20:43:42.434Z,21.90
2023-04-23T20:46:17.148Z,22.10
2023-04-23T20:48:55.852Z,23.50
2023-04-23T20:51:29.015Z,26.70
2023-04-23T20:54:03.258Z,27.50
2023-04-23T20:56:41.213Z,25.10
2023-04-23T20:59:13.270Z,22.90
2023-04-23T21:01:55.530Z,21.20
2023-04-23T21:04:29.573Z,19.80
2023-04-23T21:07:21.995Z,19.40
2023-04-23T21:13:01.981Z,18.20
2023-04-23T21:15:54.541Z,19.60
2023-04-23T21:18:28.053Z,21.50
2023-04-23T21:21:09.091Z,19.40
2023-04-23T21:23:45.147Z,17.80
2023-04-23T21:26:21.998Z,17.90
2023-04-23T21:28:55.044Z,20.20
2023-04-23T21:31:50.484Z,19.70
2023-04-23T21:34:23.709Z,19.60
2023-04-23T21:36:54.271Z,18.90
2023-04-23T21:39:43.011Z,17.60
2023-04-23T21:42:22.382Z,18.70
2023-04-23T21:45:09.009Z,20.20
2023-04-23T21:47:44.990Z,21.20
2023-04-23T21:50:20.621Z,20.40
2023-04-23T21:52:53.857Z,20.60
2023-04-23T21:55:32.120Z,20.90
2023-04-23T21:58:17.152Z,21.00
2023-04-23T22:00:49.153Z,21.20
2023-04-23T22:03:37.402Z,23.00
2023-04-23T22:06:16.672Z,24.00
2023-04-23T22:08:53.719Z,22.00
2023-04-23T22:11:48.876Z,21.50
2023-04-23T22:14:32.521Z,19.60
2023-04-23T22:17:15.617Z,19.80
2023-04-23T22:19:46.180Z,21.40
2023-04-23T22:22:17.274Z,22.50
2023-04-23T22:24:58.553Z,21.30
2023-04-23T22:27:37.068Z,21.20
2023-04-23T22:30:15.863Z,22.10
2023-04-23T22:32:50.117Z,22.00
2023-04-23T22:35:49.726Z,21.10
2023-04-23T22:38:26.536Z,20.70
2023-04-23T22:41:00.202Z,19.10
2023-04-23T22:43:35.989Z,20.00
2023-04-23T22:46:12.655Z,20.50
2023-04-23T22:48:49.826Z,19.60
2023-04-23T22:51:22.183Z,18.60
2023-04-23T22:53:54.531Z,20.60
2023-04-23T22:56:30.677Z,19.20
2023-04-23T22:59:13.691Z,20.40
2023-04-23T23:02:02.526Z,19.80
2023-04-23T23:04:41.829Z,18.10
2023-04-23T23:07:16.608Z,19.20
2023-04-23T23:09:53.653Z,16.60
2023-04-23T23:12:24.556Z,15.90
2023-04-23T23:15:00.168Z,16.00
2023-04-23T23:17:40.991Z,16.40
2023-04-23T23:20:17.504Z,15.20
2023-04-23T23:22:50.555Z,15.30
2023-04-23T23:25:26.082Z,14.80
2023-04-23T23:28:08.102Z,14.40
2023-04-23T23:30:43.730Z,16.40
2023-04-23T23:33:17.507Z,15.90
2023-04-23T23:35:51.940Z,15.20
2023-04-23T23:38:24.062Z,13.80
2023-04-23T23:41:05.074Z,14.60
2023-04-23T23:43:51.779Z,14.60
2023-04-23T23:46:24.387Z,14.10
2023-04-23T23:48:55.401Z,14.30
2023-04-23T23:51:26.196Z,13.80
2023-04-23T23:53:57.003Z,14.00
2023-04-23T23:56:29.992Z,15.20
2023-04-23T23:59:09.766Z,14.50
